sensor_id;sensor_type;location;lat;lon;timestamp;P1;durP1;ratioP1;P2;durP2;ratioP2
72123;SDS011;63818;37.134;-8.548;2023-05-21T00:00:48;21.7;;;9.9;;
72123;SDS011;63818;37.134;-8.548;2023-05-21T00:05:34;21.0;;;9.5;;
72123;SDS011;63818;37.134;-8.548;2023-05-21T00:10:20;18.5;;;9.2;;
72123;SDS011;63818;37.134;-8.548;2023-05-21T00:15:09;18.5;;;9.4;;
72123;SDS011;63818;37.134;-8.548;2023-05-21T00:19:57;17.6;;;9.4;;
72123;SDS011;63818;37.134;-8.548;2023-05-21T00:24:48;16.3;;;9.5;;
72123;SDS011;63818;37.134;-8.548;2023-05-21T00:29:34;17.0;;;9.2;;
72123;SDS011;63818;37.134;-8.548;2023-05-21T00:34:20;18.7;;;9.1;;
72123;SDS011;63818;37.134;-8.548;2023-05-21T00:39:11;19.5;;;9.2;;
72123;SDS011;63818;37.134;-8.548;2023-05-21T00:43:59;17.4;;;9.0;;
72123;SDS011;63818;37.134;-8.548;2023-05-21T00:48:45;16.1;;;9.1;;
72123;SDS011;63818;37.134;-8.548;2023-05-21T00:53:33;16.1;;;9.4;;
72123;SDS011;63818;37.134;-8.548;2023-05-21T00:58:24;17.7;;;9.4;;
72123;SDS011;63818;37.134;-8.548;2023-05-21T01:03:10;18.1;;;9.1;;
72123;SDS011;63818;37.134;-8.548;2023-05-21T01:08:00;16.9;;;9.2;;
72123;SDS011;63818;37.134;-8.548;2023-05-21T01:12:47;18.8;;;10.1;;
72123;SDS011;63818;37.134;-8.548;2023-05-21T01:17:35;18.3;;;10.4;;
72123;SDS011;63818;37.134;-8.548;2023-05-21T01:22:28;18.4;;;9.9;;
72123;SDS011;63818;37.134;-8.548;2023-05-21T01:27:16;19.8;;;10.0;;
72123;SDS011;63818;37.134;-8.548;2023-05-21T01:32:07;20.3;;;10.4;;
72123;SDS011;63818;37.134;-8.548;2023-05-21T01:37:02;20.4;;;10.6;;
72123;SDS011;63818;37.134;-8.548;2023-05-21T01:41:57;18.4;;;11.0;;
72123;SDS011;63818;37.134;-8.548;2023-05-21T01:46:52;22.8;;;11.8;;
72123;SDS011;63818;37.134;-8.548;2023-05-21T01:51:44;26.3;;;11.3;;
72123;SDS011;63818;37.134;-8.548;2023-05-21T01:56:32;22.7;;;10.7;;
72123;SDS011;63818;37.134;-8.548;2023-05-21T02:01:19;20.7;;;10.8;;
72123;SDS011;63818;37.134;-8.548;2023-05-21T02:06:05;19.4;;;10.9;;
72123;SDS011;63818;37.134;-8.548;2023-05-21T02:10:51;20.7;;;10.9;;
72123;SDS011;63818;37.134;-8.548;2023-05-21T02:15:40;21.7;;;10.6;;
72123;SDS011;63818;37.134;-8.548;2023-05-21T02:20:28;20.3;;;10.4;;
72123;SDS011;63818;37.134;-8.548;2023-05-21T02:25:15;24.0;;;10.5;;
72123;SDS011;63818;37.134;-8.548;2023-05-21T02:30:03;28.2;;;11.1;;
72123;SDS011;63818;37.134;-8.548;2023-05-21T02:34:50;25.2;;;11.3;;
72123;SDS011;63818;37.134;-8.548;2023-05-21T02:39:39;20.7;;;11.0;;
72123;SDS011;63818;37.134;-8.548;2023-05-21T02:44:27;21.0;;;11.4;;
72123;SDS011;63818;37.134;-8.548;2023-05-21T02:49:13;20.1;;;11.2;;
72123;SDS011;63818;37.134;-8.548;2023-05-21T02:53:59;22.0;;;10.8;;
72123;SDS011;63818;37.134;-8.548;2023-05-21T02:58:47;24.7;;;11.4;;
72123;SDS011;63818;37.134;-8.548;2023-05-21T03:03:35;24.7;;;11.9;;
72123;SDS011;63818;37.134;-8.548;2023-05-21T03:08:23;23.6;;;11.7;;
72123;SDS011;63818;37.134;-8.548;2023-05-21T03:13:12;24.0;;;11.4;;
72123;SDS011;63818;37.134;-8.548;2023-05-21T03:18:04;29.9;;;10.9;;
72123;SDS011;63818;37.134;-8.548;2023-05-21T03:22:54;29.4;;;10.6;;
72123;SDS011;63818;37.134;-8.548;2023-05-21T03:27:40;29.5;;;11.0;;
72123;SDS011;63818;37.134;-8.548;2023-05-21T03:32:28;27.8;;;10.9;;
72123;SDS011;63818;37.134;-8.548;2023-05-21T03:37:13;23.4;;;11.1;;
72123;SDS011;63818;37.134;-8.548;2023-05-21T03:41:59;24.6;;;11.1;;
72123;SDS011;63818;37.134;-8.548;2023-05-21T03:46:49;27.0;;;11.1;;
72123;SDS011;63818;37.134;-8.548;2023-05-21T03:51:35;31.0;;;11.1;;
72123;SDS011;63818;37.134;-8.548;2023-05-21T03:56:27;30.4;;;10.9;;
72123;SDS011;63818;37.134;-8.548;2023-05-21T04:01:12;29.0;;;11.2;;
72123;SDS011;63818;37.134;-8.548;2023-05-21T04:05:59;30.2;;;11.5;;
72123;SDS011;63818;37.134;-8.548;2023-05-21T04:10:47;26.5;;;11.2;;
72123;SDS011;63818;37.134;-8.548;2023-05-21T04:15:33;28.9;;;11.0;;
72123;SDS011;63818;37.134;-8.548;2023-05-21T04:20:22;27.7;;;11.1;;
72123;SDS011;63818;37.134;-8.548;2023-05-21T04:25:08;22.4;;;11.1;;
72123;SDS011;63818;37.134;-8.548;2023-05-21T04:29:54;26.6;;;11.6;;
72123;SDS011;63818;37.134;-8.548;2023-05-21T04:34:40;31.3;;;12.1;;
72123;SDS011;63818;37.134;-8.548;2023-05-21T04:39:28;34.1;;;11.6;;
72123;SDS011;63818;37.134;-8.548;2023-05-21T04:44:14;31.2;;;12.1;;
72123;SDS011;63818;37.134;-8.548;2023-05-21T04:49:00;28.0;;;12.4;;
72123;SDS011;63818;37.134;-8.548;2023-05-21T04:53:48;29.1;;;11.8;;
72123;SDS011;63818;37.134;-8.548;2023-05-21T04:58:38;32.1;;;11.5;;
72123;SDS011;63818;37.134;-8.548;2023-05-21T05:03:23;33.5;;;12.0;;
72123;SDS011;63818;37.134;-8.548;2023-05-21T05:08:16;32.4;;;12.0;;
72123;SDS011;63818;37.134;-8.548;2023-05-21T05:13:02;30.2;;;11.1;;
72123;SDS011;63818;37.134;-8.548;2023-05-21T05:17:48;28.1;;;11.3;;
72123;SDS011;63818;37.134;-8.548;2023-05-21T05:22:36;26.3;;;11.1;;
72123;SDS011;63818;37.134;-8.548;2023-05-21T05:27:23;26.7;;;10.5;;
72123;SDS011;63818;37.134;-8.548;2023-05-21T05:32:09;32.2;;;11.1;;
72123;SDS011;63818;37.134;-8.548;2023-05-21T05:36:58;30.6;;;10.9;;
72123;SDS011;63818;37.134;-8.548;2023-05-21T05:41:44;25.3;;;10.6;;
72123;SDS011;63818;37.134;-8.548;2023-05-21T05:46:31;25.6;;;10.8;;
72123;SDS011;63818;37.134;-8.548;2023-05-21T05:51:19;27.4;;;11.1;;
72123;SDS011;63818;37.134;-8.548;2023-05-21T05:56:05;27.1;;;10.8;;
72123;SDS011;63818;37.134;-8.548;2023-05-21T06:00:51;26.2;;;10.6;;
72123;SDS011;63818;37.134;-8.548;2023-05-21T06:05:39;28.5;;;11.4;;
72123;SDS011;63818;37.134;-8.548;2023-05-21T06:10:25;29.0;;;11.0;;
72123;SDS011;63818;37.134;-8.548;2023-05-21T06:15:11;26.4;;;10.2;;
72123;SDS011;63818;37.134;-8.548;2023-05-21T06:19:59;26.5;;;11.0;;
72123;SDS011;63818;37.134;-8.548;2023-05-21T06:24:45;27.6;;;11.4;;
72123;SDS011;63818;37.134;-8.548;2023-05-21T06:29:31;23.7;;;10.5;;
72123;SDS011;63818;37.134;-8.548;2023-05-21T06:34:20;25.6;;;10.7;;
72123;SDS011;63818;37.134;-8.548;2023-05-21T06:39:06;29.4;;;10.9;;
72123;SDS011;63818;37.134;-8.548;2023-05-21T06:43:52;28.4;;;10.5;;
72123;SDS011;63818;37.134;-8.548;2023-05-21T06:48:38;29.8;;;10.6;;
72123;SDS011;63818;37.134;-8.548;2023-05-21T06:53:23;31.5;;;11.1;;
72123;SDS011;63818;37.134;-8.548;2023-05-21T06:58:13;28.7;;;10.9;;
72123;SDS011;63818;37.134;-8.548;2023-05-21T07:03:02;25.5;;;10.6;;
72123;SDS011;63818;37.134;-8.548;2023-05-21T07:07:50;27.0;;;11.3;;
72123;SDS011;63818;37.134;-8.548;2023-05-21T07:12:36;26.8;;;11.1;;
72123;SDS011;63818;37.134;-8.548;2023-05-21T07:17:24;26.2;;;10.7;;
72123;SDS011;63818;37.134;-8.548;2023-05-21T07:22:10;32.6;;;12.1;;
72123;SDS011;63818;37.134;-8.548;2023-05-21T07:27:01;20.4;;;11.5;;
72123;SDS011;63818;37.134;-8.548;2023-05-21T07:31:48;25.3;;;10.6;;
72123;SDS011;63818;37.134;-8.548;2023-05-21T07:36:36;24.6;;;10.6;;
72123;SDS011;63818;37.134;-8.548;2023-05-21T07:41:22;22.3;;;9.9;;
72123;SDS011;63818;37.134;-8.548;2023-05-21T07:46:09;27.3;;;10.2;;
72123;SDS011;63818;37.134;-8.548;2023-05-21T07:50:58;28.9;;;10.7;;
72123;SDS011;63818;37.134;-8.548;2023-05-21T07:55:44;24.7;;;10.5;;
72123;SDS011;63818;37.134;-8.548;2023-05-21T08:00:36;28.1;;;10.5;;
72123;SDS011;63818;37.134;-8.548;2023-05-21T08:05:32;30.1;;;10.8;;
72123;SDS011;63818;37.134;-8.548;2023-05-21T08:10:18;26.0;;;11.0;;
72123;SDS011;63818;37.134;-8.548;2023-05-21T08:15:04;28.2;;;10.8;;
72123;SDS011;63818;37.134;-8.548;2023-05-21T08:19:52;24.8;;;10.4;;
72123;SDS011;63818;37.134;-8.548;2023-05-21T08:24:38;24.4;;;10.5;;
72123;SDS011;63818;37.134;-8.548;2023-05-21T08:29:24;29.3;;;10.5;;
72123;SDS011;63818;37.134;-8.548;2023-05-21T08:34:14;29.4;;;10.6;;
72123;SDS011;63818;37.134;-8.548;2023-05-21T08:39:03;30.3;;;10.8;;
72123;SDS011;63818;37.134;-8.548;2023-05-21T08:43:49;31.4;;;10.6;;
72123;SDS011;63818;37.134;-8.548;2023-05-21T08:48:39;16.7;;;9.8;;
72123;SDS011;63818;37.134;-8.548;2023-05-21T08:53:30;19.8;;;9.8;;
72123;SDS011;63818;37.134;-8.548;2023-05-21T08:58:17;22.5;;;10.6;;
72123;SDS011;63818;37.134;-8.548;2023-05-21T09:03:04;22.5;;;11.1;;
72123;SDS011;63818;37.134;-8.548;2023-05-21T09:07:55;22.3;;;10.7;;
72123;SDS011;63818;37.134;-8.548;2023-05-21T09:12:52;21.8;;;9.9;;
72123;SDS011;63818;37.134;-8.548;2023-05-21T09:17:38;22.1;;;9.7;;
72123;SDS011;63818;37.134;-8.548;2023-05-21T09:22:27;25.1;;;11.2;;
72123;SDS011;63818;37.134;-8.548;2023-05-21T09:27:13;29.1;;;11.8;;
72123;SDS011;63818;37.134;-8.548;2023-05-21T09:32:06;30.2;;;10.7;;
72123;SDS011;63818;37.134;-8.548;2023-05-21T09:36:57;26.3;;;10.2;;
72123;SDS011;63818;37.134;-8.548;2023-05-21T09:41:49;19.5;;;9.8;;
72123;SDS011;63818;37.134;-8.548;2023-05-21T09:46:41;19.5;;;9.6;;
72123;SDS011;63818;37.134;-8.548;2023-05-21T09:51:37;21.5;;;9.8;;
72123;SDS011;63818;37.134;-8.548;2023-05-21T09:56:23;19.4;;;9.9;;
72123;SDS011;63818;37.134;-8.548;2023-05-21T10:01:09;23.4;;;9.8;;
72123;SDS011;63818;37.134;-8.548;2023-05-21T10:05:58;22.2;;;9.3;;
72123;SDS011;63818;37.134;-8.548;2023-05-21T10:10:45;18.7;;;9.0;;
72123;SDS011;63818;37.134;-8.548;2023-05-21T10:15:37;20.2;;;8.9;;
72123;SDS011;63818;37.134;-8.548;2023-05-21T10:20:24;19.7;;;9.0;;
72123;SDS011;63818;37.134;-8.548;2023-05-21T10:25:19;20.8;;;9.2;;
72123;SDS011;63818;37.134;-8.548;2023-05-21T10:30:08;21.1;;;9.4;;
72123;SDS011;63818;37.134;-8.548;2023-05-21T10:34:56;20.2;;;9.6;;
72123;SDS011;63818;37.134;-8.548;2023-05-21T10:39:45;23.1;;;9.9;;
72123;SDS011;63818;37.134;-8.548;2023-05-21T10:44:34;26.6;;;10.2;;
72123;SDS011;63818;37.134;-8.548;2023-05-21T10:49:52;27.3;;;9.8;;
72123;SDS011;63818;37.134;-8.548;2023-05-21T10:54:55;28.8;;;9.9;;
72123;SDS011;63818;37.134;-8.548;2023-05-21T10:59:46;27.3;;;10.3;;
72123;SDS011;63818;37.134;-8.548;2023-05-21T11:04:35;29.1;;;10.6;;
72123;SDS011;63818;37.134;-8.548;2023-05-21T11:09:29;29.0;;;10.1;;
72123;SDS011;63818;37.134;-8.548;2023-05-21T11:14:33;29.9;;;10.3;;
72123;SDS011;63818;37.134;-8.548;2023-05-21T11:19:19;30.9;;;10.7;;
72123;SDS011;63818;37.134;-8.548;2023-05-21T11:24:06;23.2;;;9.6;;
72123;SDS011;63818;37.134;-8.548;2023-05-21T11:28:55;22.0;;;9.3;;
72123;SDS011;63818;37.134;-8.548;2023-05-21T11:34:34;25.3;;;9.7;;
72123;SDS011;63818;37.134;-8.548;2023-05-21T11:39:27;28.6;;;10.4;;
72123;SDS011;63818;37.134;-8.548;2023-05-21T11:44:13;26.3;;;10.3;;
72123;SDS011;63818;37.134;-8.548;2023-05-21T11:48:59;24.7;;;9.9;;
72123;SDS011;63818;37.134;-8.548;2023-05-21T11:53:50;26.6;;;10.1;;
72123;SDS011;63818;37.134;-8.548;2023-05-21T11:58:40;24.5;;;10.0;;
72123;SDS011;63818;37.134;-8.548;2023-05-21T12:03:32;21.8;;;9.6;;
72123;SDS011;63818;37.134;-8.548;2023-05-21T12:08:24;19.4;;;9.8;;
72123;SDS011;63818;37.134;-8.548;2023-05-21T12:13:10;24.2;;;10.9;;
72123;SDS011;63818;37.134;-8.548;2023-05-21T12:17:58;27.0;;;11.6;;
72123;SDS011;63818;37.134;-8.548;2023-05-21T12:22:49;23.5;;;12.4;;
72123;SDS011;63818;37.134;-8.548;2023-05-21T12:27:37;22.6;;;13.2;;
72123;SDS011;63818;37.134;-8.548;2023-05-21T12:32:25;20.8;;;13.3;;
72123;SDS011;63818;37.134;-8.548;2023-05-21T12:37:14;22.6;;;13.7;;
72123;SDS011;63818;37.134;-8.548;2023-05-21T12:42:04;24.9;;;13.8;;
72123;SDS011;63818;37.134;-8.548;2023-05-21T12:46:52;24.5;;;13.9;;
72123;SDS011;63818;37.134;-8.548;2023-05-21T12:51:38;26.1;;;13.9;;
72123;SDS011;63818;37.134;-8.548;2023-05-21T12:56:27;22.9;;;13.7;;
72123;SDS011;63818;37.134;-8.548;2023-05-21T13:01:12;19.8;;;12.8;;
72123;SDS011;63818;37.134;-8.548;2023-05-21T13:06:08;19.6;;;11.6;;
72123;SDS011;63818;37.134;-8.548;2023-05-21T13:10:54;17.1;;;10.8;;
72123;SDS011;63818;37.134;-8.548;2023-05-21T13:15:45;18.9;;;11.3;;
72123;SDS011;63818;37.134;-8.548;2023-05-21T13:20:31;21.1;;;11.5;;
72123;SDS011;63818;37.134;-8.548;2023-05-21T13:25:19;17.2;;;10.3;;
72123;SDS011;63818;37.134;-8.548;2023-05-21T13:30:07;17.1;;;10.2;;
72123;SDS011;63818;37.134;-8.548;2023-05-21T13:34:59;19.8;;;10.1;;
72123;SDS011;63818;37.134;-8.548;2023-05-21T13:39:46;17.7;;;9.5;;
72123;SDS011;63818;37.134;-8.548;2023-05-21T13:44:32;16.0;;;9.2;;
72123;SDS011;63818;37.134;-8.548;2023-05-21T13:49:18;15.8;;;9.0;;
72123;SDS011;63818;37.134;-8.548;2023-05-21T13:54:04;15.4;;;9.5;;
72123;SDS011;63818;37.134;-8.548;2023-05-21T13:58:55;15.1;;;9.5;;
72123;SDS011;63818;37.134;-8.548;2023-05-21T14:03:46;13.5;;;9.2;;
72123;SDS011;63818;37.134;-8.548;2023-05-21T14:08:33;12.0;;;8.9;;
72123;SDS011;63818;37.134;-8.548;2023-05-21T14:13:29;14.0;;;9.2;;
72123;SDS011;63818;37.134;-8.548;2023-05-21T14:18:18;15.4;;;9.0;;
72123;SDS011;63818;37.134;-8.548;2023-05-21T14:23:04;14.3;;;8.7;;
72123;SDS011;63818;37.134;-8.548;2023-05-21T14:27:55;13.1;;;8.8;;
72123;SDS011;63818;37.134;-8.548;2023-05-21T14:32:41;12.2;;;8.5;;
72123;SDS011;63818;37.134;-8.548;2023-05-21T14:37:27;12.3;;;8.7;;
72123;SDS011;63818;37.134;-8.548;2023-05-21T14:42:13;12.7;;;8.7;;
72123;SDS011;63818;37.134;-8.548;2023-05-21T14:46:59;12.5;;;8.5;;
72123;SDS011;63818;37.134;-8.548;2023-05-21T14:51:47;12.0;;;8.6;;
72123;SDS011;63818;37.134;-8.548;2023-05-21T14:56:34;11.9;;;8.4;;
72123;SDS011;63818;37.134;-8.548;2023-05-21T15:01:22;12.8;;;8.4;;
72123;SDS011;63818;37.134;-8.548;2023-05-21T15:06:08;13.1;;;8.7;;
72123;SDS011;63818;37.134;-8.548;2023-05-21T15:10:55;13.8;;;8.9;;
72123;SDS011;63818;37.134;-8.548;2023-05-21T15:15:41;14.0;;;8.8;;
72123;SDS011;63818;37.134;-8.548;2023-05-21T15:20:33;13.4;;;8.7;;
72123;SDS011;63818;37.134;-8.548;2023-05-21T15:25:19;15.5;;;8.8;;
72123;SDS011;63818;37.134;-8.548;2023-05-21T15:30:08;15.9;;;8.3;;
72123;SDS011;63818;37.134;-8.548;2023-05-21T15:34:57;15.8;;;7.9;;
72123;SDS011;63818;37.134;-8.548;2023-05-21T15:39:44;14.7;;;8.1;;
72123;SDS011;63818;37.134;-8.548;2023-05-21T15:44:35;13.1;;;7.7;;
72123;SDS011;63818;37.134;-8.548;2023-05-21T15:49:21;11.8;;;7.2;;
72123;SDS011;63818;37.134;-8.548;2023-05-21T15:54:08;11.2;;;7.3;;
72123;SDS011;63818;37.134;-8.548;2023-05-21T15:58:56;12.5;;;7.3;;
72123;SDS011;63818;37.134;-8.548;2023-05-21T16:03:46;12.2;;;7.6;;
72123;SDS011;63818;37.134;-8.548;2023-05-21T16:08:32;12.4;;;8.2;;
72123;SDS011;63818;37.134;-8.548;2023-05-21T16:13:19;14.6;;;8.8;;
72123;SDS011;63818;37.134;-8.548;2023-05-21T16:18:08;14.2;;;9.2;;
72123;SDS011;63818;37.134;-8.548;2023-05-21T16:22:53;11.9;;;8.6;;
72123;SDS011;63818;37.134;-8.548;2023-05-21T16:27:43;13.9;;;8.6;;
72123;SDS011;63818;37.134;-8.548;2023-05-21T16:32:34;15.6;;;9.4;;
72123;SDS011;63818;37.134;-8.548;2023-05-21T16:37:20;15.2;;;9.6;;
72123;SDS011;63818;37.134;-8.548;2023-05-21T16:42:08;14.3;;;9.3;;
72123;SDS011;63818;37.134;-8.548;2023-05-21T16:47:01;13.4;;;9.2;;
72123;SDS011;63818;37.134;-8.548;2023-05-21T16:51:48;17.1;;;9.3;;
72123;SDS011;63818;37.134;-8.548;2023-05-21T16:56:34;23.7;;;12.5;;
72123;SDS011;63818;37.134;-8.548;2023-05-21T17:01:20;13.6;;;12.4;;
72123;SDS011;63818;37.134;-8.548;2023-05-21T17:06:07;14.2;;;9.0;;
72123;SDS011;63818;37.134;-8.548;2023-05-21T17:10:55;18.2;;;11.4;;
72123;SDS011;63818;37.134;-8.548;2023-05-21T17:15:41;18.3;;;11.7;;
72123;SDS011;63818;37.134;-8.548;2023-05-21T17:20:27;15.6;;;9.5;;
72123;SDS011;63818;37.134;-8.548;2023-05-21T17:25:14;14.5;;;9.6;;
72123;SDS011;63818;37.134;-8.548;2023-05-21T17:29:59;13.4;;;9.4;;
72123;SDS011;63818;37.134;-8.548;2023-05-21T17:34:45;14.3;;;9.5;;
72123;SDS011;63818;37.134;-8.548;2023-05-21T17:39:32;15.3;;;9.9;;
72123;SDS011;63818;37.134;-8.548;2023-05-21T17:44:18;15.6;;;9.8;;
72123;SDS011;63818;37.134;-8.548;2023-05-21T17:49:05;15.3;;;9.7;;
72123;SDS011;63818;37.134;-8.548;2023-05-21T17:53:51;14.5;;;10.0;;
72123;SDS011;63818;37.134;-8.548;2023-05-21T17:58:39;17.1;;;11.4;;
72123;SDS011;63818;37.134;-8.548;2023-05-21T18:03:25;17.9;;;12.0;;
72123;SDS011;63818;37.134;-8.548;2023-05-21T18:08:11;16.1;;;11.0;;
72123;SDS011;63818;37.134;-8.548;2023-05-21T18:12:57;17.2;;;11.0;;
72123;SDS011;63818;37.134;-8.548;2023-05-21T18:17:45;17.0;;;10.6;;
72123;SDS011;63818;37.134;-8.548;2023-05-21T18:22:32;16.6;;;10.7;;
72123;SDS011;63818;37.134;-8.548;2023-05-21T18:27:18;16.0;;;10.8;;
72123;SDS011;63818;37.134;-8.548;2023-05-21T18:32:07;15.2;;;10.8;;
72123;SDS011;63818;37.134;-8.548;2023-05-21T18:36:52;17.3;;;11.1;;
72123;SDS011;63818;37.134;-8.548;2023-05-21T18:41:41;16.5;;;10.9;;
72123;SDS011;63818;37.134;-8.548;2023-05-21T18:46:27;14.3;;;10.6;;
72123;SDS011;63818;37.134;-8.548;2023-05-21T18:51:14;15.3;;;11.1;;
72123;SDS011;63818;37.134;-8.548;2023-05-21T18:56:00;18.5;;;12.6;;
72123;SDS011;63818;37.134;-8.548;2023-05-21T19:00:46;21.8;;;15.6;;
72123;SDS011;63818;37.134;-8.548;2023-05-21T19:05:32;20.8;;;15.5;;
72123;SDS011;63818;37.134;-8.548;2023-05-21T19:10:18;17.0;;;12.1;;
72123;SDS011;63818;37.134;-8.548;2023-05-21T19:15:04;18.2;;;11.3;;
72123;SDS011;63818;37.134;-8.548;2023-05-21T19:19:51;19.1;;;11.5;;
72123;SDS011;63818;37.134;-8.548;2023-05-21T19:24:37;18.8;;;11.4;;
72123;SDS011;63818;37.134;-8.548;2023-05-21T19:29:23;20.5;;;11.4;;
72123;SDS011;63818;37.134;-8.548;2023-05-21T19:34:09;17.9;;;11.3;;
72123;SDS011;63818;37.134;-8.548;2023-05-21T19:38:55;17.2;;;11.3;;
72123;SDS011;63818;37.134;-8.548;2023-05-21T19:43:42;17.9;;;11.3;;
72123;SDS011;63818;37.134;-8.548;2023-05-21T19:48:29;18.1;;;11.7;;
72123;SDS011;63818;37.134;-8.548;2023-05-21T19:53:15;16.0;;;11.9;;
72123;SDS011;63818;37.134;-8.548;2023-05-21T19:58:01;15.3;;;11.2;;
72123;SDS011;63818;37.134;-8.548;2023-05-21T20:02:48;17.1;;;11.2;;
72123;SDS011;63818;37.134;-8.548;2023-05-21T20:07:33;17.2;;;11.4;;
72123;SDS011;63818;37.134;-8.548;2023-05-21T20:12:20;18.0;;;11.3;;
72123;SDS011;63818;37.134;-8.548;2023-05-21T20:17:08;20.2;;;12.7;;
72123;SDS011;63818;37.134;-8.548;2023-05-21T20:21:54;17.5;;;12.5;;
72123;SDS011;63818;37.134;-8.548;2023-05-21T20:26:43;16.1;;;11.2;;
72123;SDS011;63818;37.134;-8.548;2023-05-21T20:31:29;17.0;;;11.1;;
72123;SDS011;63818;37.134;-8.548;2023-05-21T20:36:15;17.5;;;10.8;;
72123;SDS011;63818;37.134;-8.548;2023-05-21T20:41:04;17.6;;;11.3;;
72123;SDS011;63818;37.134;-8.548;2023-05-21T20:45:49;16.8;;;11.6;;
72123;SDS011;63818;37.134;-8.548;2023-05-21T20:50:36;18.2;;;11.5;;
72123;SDS011;63818;37.134;-8.548;2023-05-21T20:55:23;19.9;;;11.8;;
72123;SDS011;63818;37.134;-8.548;2023-05-21T21:00:09;24.2;;;17.2;;
72123;SDS011;63818;37.134;-8.548;2023-05-21T21:04:56;20.8;;;14.6;;
72123;SDS011;63818;37.134;-8.548;2023-05-21T21:09:42;16.5;;;11.7;;
72123;SDS011;63818;37.134;-8.548;2023-05-21T21:14:28;15.9;;;11.4;;
72123;SDS011;63818;37.134;-8.548;2023-05-21T21:19:14;19.0;;;13.3;;
72123;SDS011;63818;37.134;-8.548;2023-05-21T21:24:01;18.9;;;12.8;;
72123;SDS011;63818;37.134;-8.548;2023-05-21T21:28:49;15.3;;;10.3;;
72123;SDS011;63818;37.134;-8.548;2023-05-21T21:33:35;15.1;;;10.7;;
72123;SDS011;63818;37.134;-8.548;2023-05-21T21:38:21;15.5;;;11.2;;
72123;SDS011;63818;37.134;-8.548;2023-05-21T21:43:07;16.3;;;10.8;;
72123;SDS011;63818;37.134;-8.548;2023-05-21T21:47:56;15.1;;;10.1;;
72123;SDS011;63818;37.134;-8.548;2023-05-21T21:52:44;13.7;;;9.4;;
72123;SDS011;63818;37.134;-8.548;2023-05-21T21:57:31;16.4;;;9.7;;
72123;SDS011;63818;37.134;-8.548;2023-05-21T22:02:17;16.9;;;9.1;;
72123;SDS011;63818;37.134;-8.548;2023-05-21T22:07:03;13.8;;;8.4;;
72123;SDS011;63818;37.134;-8.548;2023-05-21T22:11:49;13.0;;;8.7;;
72123;SDS011;63818;37.134;-8.548;2023-05-21T22:16:37;14.4;;;9.1;;
72123;SDS011;63818;37.134;-8.548;2023-05-21T22:21:23;14.0;;;9.2;;
72123;SDS011;63818;37.134;-8.548;2023-05-21T22:26:09;12.4;;;9.1;;
72123;SDS011;63818;37.134;-8.548;2023-05-21T22:30:55;14.6;;;9.9;;
72123;SDS011;63818;37.134;-8.548;2023-05-21T22:35:41;14.5;;;9.1;;
72123;SDS011;63818;37.134;-8.548;2023-05-21T22:40:27;14.2;;;8.1;;
72123;SDS011;63818;37.134;-8.548;2023-05-21T22:45:13;14.8;;;8.6;;
72123;SDS011;63818;37.134;-8.548;2023-05-21T22:49:59;15.0;;;8.8;;
72123;SDS011;63818;37.134;-8.548;2023-05-21T22:54:45;14.3;;;8.3;;
72123;SDS011;63818;37.134;-8.548;2023-05-21T22:59:33;13.2;;;8.6;;
72123;SDS011;63818;37.134;-8.548;2023-05-21T23:04:21;14.9;;;9.5;;
72123;SDS011;63818;37.134;-8.548;2023-05-21T23:09:07;14.9;;;9.3;;
72123;SDS011;63818;37.134;-8.548;2023-05-21T23:13:53;13.6;;;8.5;;
72123;SDS011;63818;37.134;-8.548;2023-05-21T23:18:40;13.7;;;8.7;;
72123;SDS011;63818;37.134;-8.548;2023-05-21T23:23:25;12.5;;;8.7;;
72123;SDS011;63818;37.134;-8.548;2023-05-21T23:28:12;12.5;;;8.1;;
72123;SDS011;63818;37.134;-8.548;2023-05-21T23:32:58;13.8;;;8.2;;
72123;SDS011;63818;37.134;-8.548;2023-05-21T23:37:44;14.5;;;8.1;;
72123;SDS011;63818;37.134;-8.548;2023-05-21T23:42:30;13.7;;;8.5;;
72123;SDS011;63818;37.134;-8.548;2023-05-21T23:47:18;14.3;;;9.6;;
72123;SDS011;63818;37.134;-8.548;2023-05-21T23:52:04;15.2;;;9.9;;
72123;SDS011;63818;37.134;-8.548;2023-05-21T23:56:50;15.7;;;9.8;;
